Time;durP1;ratioP1;P1;durP2;ratioP2;P2;SDS_P1;SDS_P2;PMS_P1;PMS_P2;Temp;Humidity;BMP_temperature;BMP_pressure;BME280_temperature;BME280_humidity;BME280_pressure;Samples;Min_cycle;Max_cycle;Signal;HPM_P1;HPM_P2
2021/04/24 00:01:02;;;;;;;9.40;3.50;;;9.60;60.40;;;;;;5011446;28;20021;-94
2021/04/24 00:03:45;;;;;;;9.95;3.55;;;9.40;60.70;;;;;;4999022;28;20064;-95
2021/04/24 00:06:20;;;;;;;9.57;3.83;;;9.40;61.20;;;;;;5007618;28;20385;-94
2021/04/24 00:08:53;;;;;;;10.70;3.90;;;9.50;61.00;;;;;;5026155;28;20296;-95
2021/04/24 00:11:31;;;;;;;7.60;3.30;;;9.40;61.50;;;;;;4995832;28;20038;-94
2021/04/24 00:14:13;;;;;;;8.27;4.07;;;9.50;61.50;;;;;;4999826;28;20486;-96
2021/04/24 00:16:46;;;;;;;8.95;3.78;;;9.40;61.60;;;;;;5003554;28;20061;-93
2021/04/24 00:19:19;;;;;;;8.10;3.53;;;9.30;62.20;;;;;;5006689;28;20061;-94
2021/04/24 00:22:00;;;;;;;9.05;3.53;;;9.20;61.90;;;;;;5010214;28;20037;-93
2021/04/24 00:24:36;;;;;;;8.88;3.97;;;9.30;62.40;;;;;;5007023;28;20025;-94
2021/04/24 00:27:14;;;;;;;10.93;4.78;;;9.20;62.60;;;;;;5008456;28;20026;-94
2021/04/24 00:29:56;;;;;;;8.27;3.38;;;9.20;63.00;;;;;;5008020;28;20020;-95
2021/04/24 00:32:29;;;;;;;9.32;3.65;;;9.20;63.30;;;;;;5007967;28;20030;-93
2021/04/24 00:35:08;;;;;;;9.02;4.20;;;9.20;63.50;;;;;;5007844;28;20026;-95
2021/04/24 00:37:38;;;;;;;9.02;4.10;;;9.20;63.20;;;;;;5010133;28;20022;-94
2021/04/24 00:40:16;;;;;;;10.65;4.22;;;9.10;63.90;;;;;;5007047;28;20033;-95
2021/04/24 00:42:50;;;;;;;10.13;4.43;;;9.00;64.60;;;;;;4999634;28;20038;-94
2021/04/24 00:45:24;;;;;;;10.75;4.25;;;9.00;65.00;;;;;;5010018;28;20034;-96
2021/04/24 00:48:07;;;;;;;11.45;4.28;;;9.10;65.40;;;;;;5005273;28;20120;-94
2021/04/24 00:50:39;;;;;;;12.27;4.60;;;8.90;65.20;;;;;;5011147;28;20088;-96
2021/04/24 00:53:16;;;;;;;12.90;4.10;;;8.90;65.80;;;;;;5009509;28;20044;-93
2021/04/24 00:55:56;;;;;;;9.07;3.95;;;8.80;65.80;;;;;;5010564;28;20042;-94
2021/04/24 00:58:33;;;;;;;13.32;4.43;;;8.90;66.10;;;;;;5004618;28;20101;-94
2021/04/24 01:01:04;;;;;;;12.10;5.00;;;8.80;66.40;;;;;;5008440;28;20033;-95
2021/04/24 01:06:32;;;;;;;8.20;4.22;;;8.70;67.00;;;;;;5021407;28;20437;-95
2021/04/24 01:09:08;;;;;;;10.32;4.43;;;8.70;67.50;;;;;;5005588;28;20121;-94
2021/04/24 01:11:44;;;;;;;10.20;4.47;;;8.60;67.40;;;;;;5010243;28;20053;-93
2021/04/24 01:37:29;;;;;;;9.52;4.40;;;8.20;70.60;;;;;;4323634;22;20051;-88
2021/04/24 01:39:55;;;;;;;11.30;4.25;;;8.30;71.40;;;;;;4989743;28;20026;-89
2021/04/24 01:42:21;;;;;;;9.40;4.07;;;8.30;71.40;;;;;;4986661;28;20019;-90
2021/04/24 01:44:47;;;;;;;9.02;4.07;;;8.30;72.40;;;;;;4980045;28;20196;-90
2021/04/24 01:47:13;;;;;;;10.85;4.25;;;8.30;72.30;;;;;;4979559;28;20019;-90
2021/04/24 01:49:39;;;;;;;9.57;4.20;;;8.20;72.60;;;;;;4970824;28;20161;-89
2021/04/24 01:52:09;;;;;;;9.40;4.20;;;8.20;72.50;;;;;;4972701;28;20094;-90
2021/04/24 01:54:35;;;;;;;10.75;4.15;;;8.30;72.80;;;;;;4973547;28;20098;-89
2021/04/24 01:57:01;;;;;;;10.63;4.40;;;8.20;73.60;;;;;;4970799;28;20078;-90
2021/04/24 01:59:29;;;;;;;8.55;3.83;;;8.20;73.50;;;;;;4969077;28;20054;-90
2021/04/24 02:01:57;;;;;;;10.07;4.13;;;8.40;73.20;;;;;;4974418;28;20035;-90
2021/04/24 02:04:27;;;;;;;10.50;4.65;;;8.10;73.20;;;;;;4974421;28;20038;-91
2021/04/24 02:06:56;;;;;;;10.98;4.72;;;8.10;74.50;;;;;;4978294;28;20442;-89
2021/04/24 02:09:24;;;;;;;8.85;4.22;;;8.20;74.50;;;;;;4979751;28;20046;-90
2021/04/24 02:12:03;;;;;;;8.77;4.25;;;8.10;74.90;;;;;;4966699;28;20031;-91
2021/04/24 02:14:31;;;;;;;11.80;4.30;;;8.00;75.30;;;;;;4969516;28;20035;-90
2021/04/24 02:16:56;;;;;;;12.35;4.55;;;8.00;75.20;;;;;;4971673;28;20110;-89
2021/04/24 02:19:23;;;;;;;11.70;5.20;;;7.90;75.80;;;;;;4970920;28;20102;-91
2021/04/24 02:21:48;;;;;;;15.07;4.60;;;7.90;76.00;;;;;;4967326;28;20045;-91
2021/04/24 02:24:14;;;;;;;9.55;4.22;;;7.80;76.50;;;;;;4965720;28;20102;-90
2021/04/24 02:26:40;;;;;;;7.00;3.63;;;7.80;77.30;;;;;;4965626;28;20102;-91
2021/04/24 02:29:06;;;;;;;11.60;4.18;;;7.80;77.00;;;;;;4972257;28;20110;-91
2021/04/24 02:31:31;;;;;;;10.43;4.22;;;7.60;77.00;;;;;;4966188;28;20037;-90
2021/04/24 02:33:57;;;;;;;9.55;3.92;;;7.70;77.90;;;;;;4972390;28;20526;-90
2021/04/24 02:36:23;;;;;;;9.77;4.00;;;7.70;77.40;;;;;;4969090;28;20078;-91
2021/04/24 02:38:51;;;;;;;13.20;4.53;;;8.00;78.60;;;;;;4965602;28;20030;-91
2021/04/24 02:41:18;;;;;;;10.32;4.00;;;7.60;80.10;;;;;;4965163;28;20096;-89
2021/04/24 02:43:44;;;;;;;10.88;4.63;;;7.60;80.90;;;;;;4982000;28;20030;-91
2021/04/24 02:46:10;;;;;;;13.45;4.63;;;7.80;81.80;;;;;;4969625;28;20475;-90
2021/04/24 02:48:37;;;;;;;10.15;4.30;;;7.90;81.40;;;;;;4966505;28;20039;-89
2021/04/24 02:51:03;;;;;;;10.38;4.97;;;7.50;81.90;;;;;;4975043;28;20027;-89
2021/04/24 02:53:29;;;;;;;11.40;5.07;;;7.50;82.50;;;;;;4973627;28;20031;-88
2021/04/24 02:55:55;;;;;;;13.23;4.53;;;7.60;83.40;;;;;;4978160;28;20053;-91
2021/04/24 02:58:20;;;;;;;9.27;4.80;;;7.50;83.60;;;;;;4970249;28;20483;-90
2021/04/24 03:00:47;;;;;;;11.90;4.53;;;7.50;84.30;;;;;;4968198;28;20109;-90
2021/04/24 03:03:14;;;;;;;9.35;3.88;;;7.60;83.70;;;;;;4970136;28;20026;-90
2021/04/24 03:05:42;;;;;;;14.80;4.03;;;7.50;83.20;;;;;;4968240;28;20031;-90
2021/04/24 03:08:09;;;;;;;13.55;4.93;;;7.40;83.90;;;;;;4966000;28;20054;-90
2021/04/24 03:10:37;;;;;;;12.25;4.13;;;7.40;83.40;;;;;;4970018;28;20038;-91
2021/04/24 03:13:05;;;;;;;10.70;4.28;;;7.60;83.60;;;;;;4967448;28;20027;-91
2021/04/24 03:15:31;;;;;;;12.23;5.47;;;7.30;83.40;;;;;;4976064;28;20032;-91
2021/04/24 03:18:00;;;;;;;11.80;4.30;;;7.20;83.80;;;;;;4967477;28;20275;-90
2021/04/24 03:20:26;;;;;;;12.02;4.47;;;7.60;84.60;;;;;;4970467;28;20034;-92
2021/04/24 03:22:52;;;;;;;11.15;4.50;;;7.20;85.60;;;;;;4966002;28;20029;-91
2021/04/24 03:25:18;;;;;;;9.07;4.43;;;7.10;85.50;;;;;;4973287;28;20066;-91
2021/04/24 03:27:44;;;;;;;11.63;4.47;;;7.30;86.50;;;;;;4976219;28;20383;-92
2021/04/24 03:30:12;;;;;;;11.82;4.63;;;7.40;86.70;;;;;;4975630;28;20023;-91
2021/04/24 03:32:38;;;;;;;12.93;4.57;;;7.20;87.90;;;;;;4966651;28;20075;-92
2021/04/24 03:35:05;;;;;;;11.48;4.60;;;7.20;88.10;;;;;;4970829;28;20034;-91
2021/04/24 03:37:30;;;;;;;12.43;4.35;;;7.20;87.50;;;;;;4967587;28;20045;-90
2021/04/24 03:39:56;;;;;;;12.43;4.75;;;7.20;88.20;;;;;;4973934;28;20475;-91
2021/04/24 03:42:22;;;;;;;9.95;4.03;;;7.20;90.00;;;;;;4965985;28;20399;-91
2021/04/24 03:44:48;;;;;;;9.38;4.32;;;7.20;89.60;;;;;;4968825;28;20034;-91
2021/04/24 03:47:14;;;;;;;10.05;4.47;;;7.10;90.10;;;;;;4975156;28;20087;-91
2021/04/24 03:49:40;;;;;;;15.30;5.38;;;7.00;89.50;;;;;;4966025;28;20545;-91
2021/04/24 03:52:06;;;;;;;14.20;4.85;;;7.00;89.70;;;;;;4977774;28;20113;-91
2021/04/24 03:54:31;;;;;;;10.05;4.88;;;7.00;90.10;;;;;;4965514;28;20105;-91
2021/04/24 03:56:58;;;;;;;10.82;4.80;;;6.90;90.50;;;;;;4984364;28;20027;-90
2021/04/24 03:59:24;;;;;;;10.90;4.68;;;7.10;91.00;;;;;;4978973;28;20035;-92
2021/04/24 04:01:50;;;;;;;9.65;4.75;;;6.90;91.40;;;;;;4971901;28;20663;-90
2021/04/24 04:04:16;;;;;;;10.68;3.88;;;6.90;91.50;;;;;;4971210;28;20024;-91
2021/04/24 04:06:45;;;;;;;9.15;4.40;;;6.80;92.10;;;;;;4976597;28;20900;-91
2021/04/24 04:09:11;;;;;;;14.25;4.85;;;6.80;92.70;;;;;;4961922;28;20027;-91
2021/04/24 04:11:37;;;;;;;10.15;4.45;;;7.00;92.80;;;;;;4977896;28;20118;-90
2021/04/24 04:14:03;;;;;;;12.88;4.47;;;6.80;93.10;;;;;;4973311;28;20463;-91
2021/04/24 04:16:32;;;;;;;9.98;4.47;;;6.80;93.40;;;;;;4972671;28;20034;-90
2021/04/24 04:18:57;;;;;;;17.05;4.90;;;6.70;93.40;;;;;;4984623;28;20031;-91
2021/04/24 04:21:23;;;;;;;12.20;5.10;;;6.80;93.20;;;;;;4981133;28;20085;-91
2021/04/24 04:23:49;;;;;;;12.98;4.95;;;6.80;93.10;;;;;;4970272;28;20470;-91
2021/04/24 04:26:20;;;;;;;14.13;5.55;;;6.90;93.00;;;;;;4970255;28;20027;-90
2021/04/24 04:28:46;;;;;;;13.67;4.90;;;6.40;93.10;;;;;;4972168;28;20153;-90
2021/04/24 04:31:12;;;;;;;15.07;4.90;;;6.90;93.20;;;;;;4970183;28;20293;-91
2021/04/24 04:33:38;;;;;;;12.85;5.03;;;6.80;93.00;;;;;;4968164;28;20031;-92
2021/04/24 04:36:05;;;;;;;10.25;4.45;;;6.70;92.90;;;;;;4967640;28;20502;-92
2021/04/24 04:38:31;;;;;;;12.68;4.90;;;6.70;93.20;;;;;;4967608;28;20039;-91
2021/04/24 04:40:57;;;;;;;13.48;4.57;;;6.80;93.70;;;;;;4976097;28;20039;-91
2021/04/24 04:43:23;;;;;;;11.68;5.05;;;6.80;93.80;;;;;;4964364;28;20027;-92
2021/04/24 04:45:48;;;;;;;11.55;5.15;;;6.90;93.90;;;;;;4959012;28;20022;-91
2021/04/24 04:48:14;;;;;;;9.57;4.80;;;6.70;94.10;;;;;;4964325;28;20138;-91
2021/04/24 04:50:40;;;;;;;10.90;4.50;;;6.70;94.80;;;;;;4968508;28;20038;-91
2021/04/24 04:53:07;;;;;;;10.15;4.40;;;6.70;94.90;;;;;;4955225;28;20032;-91
2021/04/24 04:55:33;;;;;;;18.55;5.22;;;7.00;95.40;;;;;;4969915;28;20514;-91
2021/04/24 04:57:59;;;;;;;11.70;5.07;;;6.80;95.10;;;;;;4957556;28;20054;-91
2021/04/24 05:00:26;;;;;;;12.57;4.97;;;6.80;94.60;;;;;;4957072;28;20035;-89
2021/04/24 05:02:52;;;;;;;9.55;4.85;;;6.80;94.70;;;;;;4973691;28;20635;-91
2021/04/24 05:05:18;;;;;;;11.93;4.45;;;6.80;94.90;;;;;;4956902;28;20047;-90
2021/04/24 05:07:44;;;;;;;12.18;5.00;;;6.90;94.80;;;;;;4961197;28;20415;-90
2021/04/24 05:10:11;;;;;;;12.27;4.90;;;7.00;94.40;;;;;;4961669;28;20029;-91
2021/04/24 05:12:37;;;;;;;13.57;5.40;;;7.10;94.00;;;;;;4957591;28;20213;-91
2021/04/24 05:15:03;;;;;;;16.30;5.15;;;7.20;93.60;;;;;;4962345;28;20488;-91
2021/04/24 05:17:29;;;;;;;10.68;4.47;;;7.30;93.30;;;;;;4957397;28;20503;-90
2021/04/24 05:19:54;;;;;;;12.90;4.90;;;7.40;93.00;;;;;;4965865;28;20023;-91
2021/04/24 05:22:20;;;;;;;9.95;4.43;;;7.40;92.80;;;;;;4956314;28;20102;-90
2021/04/24 05:24:46;;;;;;;10.13;4.70;;;7.50;92.80;;;;;;4959074;28;20027;-90
2021/04/24 05:27:12;;;;;;;11.48;5.28;;;7.50;93.00;;;;;;4958018;28;20388;-90
2021/04/24 05:29:37;;;;;;;11.05;4.68;;;7.50;92.90;;;;;;4961089;28;20039;-91
2021/04/24 05:32:04;;;;;;;11.15;5.22;;;7.60;93.30;;;;;;4958283;28;20038;-91
2021/04/24 05:34:30;;;;;;;9.48;4.45;;;7.60;93.60;;;;;;4958493;28;20035;-90
2021/04/24 05:36:56;;;;;;;12.00;5.25;;;7.70;93.60;;;;;;4970380;28;20118;-90
2021/04/24 05:39:22;;;;;;;10.65;4.90;;;7.70;93.20;;;;;;4957701;28;20122;-91
2021/04/24 05:41:48;;;;;;;11.45;5.32;;;7.80;93.40;;;;;;4960192;28;20023;-89
2021/04/24 05:44:14;;;;;;;13.75;5.65;;;7.90;93.10;;;;;;4956773;28;20069;-90
2021/04/24 05:46:39;;;;;;;10.77;4.78;;;7.90;92.40;;;;;;4959658;28;20038;-90
2021/04/24 05:49:05;;;;;;;10.43;5.07;;;8.10;92.10;;;;;;4960566;28;20027;-91
2021/04/24 05:51:31;;;;;;;14.23;4.90;;;8.20;91.60;;;;;;4956238;28;20491;-91
2021/04/24 05:53:57;;;;;;;12.73;4.90;;;8.30;90.70;;;;;;4969698;28;20133;-91
2021/04/24 05:56:23;;;;;;;10.70;4.90;;;8.40;90.40;;;;;;4963719;28;20035;-90
2021/04/24 05:58:50;;;;;;;15.88;5.13;;;8.40;90.00;;;;;;4964947;28;20387;-91
2021/04/24 06:01:17;;;;;;;13.00;4.97;;;8.50;89.60;;;;;;4958316;28;20078;-91
2021/04/24 06:03:42;;;;;;;12.60;4.90;;;8.50;89.90;;;;;;4965415;28;20024;-91
2021/04/24 06:06:08;;;;;;;10.85;4.82;;;8.50;89.90;;;;;;4958476;28;20126;-88
2021/04/24 06:08:34;;;;;;;12.00;5.30;;;8.60;89.30;;;;;;4956979;28;20578;-90
2021/04/24 06:11:00;;;;;;;13.20;5.50;;;8.50;88.90;;;;;;4969026;28;20031;-90
2021/04/24 06:13:27;;;;;;;14.00;5.25;;;8.50;88.30;;;;;;4969025;28;20034;-90
2021/04/24 06:15:53;;;;;;;14.45;5.32;;;8.50;88.10;;;;;;4963415;28;20027;-91
2021/04/24 06:18:19;;;;;;;14.45;5.30;;;8.50;87.90;;;;;;4959471;28;20035;-90
2021/04/24 06:20:44;;;;;;;10.80;5.38;;;8.40;87.00;;;;;;4959057;28;20034;-91
2021/04/24 06:23:11;;;;;;;12.90;4.85;;;8.10;87.30;;;;;;4954979;28;20117;-91
2021/04/24 06:25:37;;;;;;;12.20;5.63;;;8.10;88.60;;;;;;4962883;28;20035;-87
2021/04/24 06:28:03;;;;;;;10.25;5.43;;;8.10;89.80;;;;;;4987933;28;20027;-91
2021/04/24 06:30:29;;;;;;;11.98;5.35;;;8.00;89.90;;;;;;4968327;28;20058;-91
2021/04/24 06:32:55;;;;;;;10.80;5.22;;;8.10;90.20;;;;;;4967915;28;20105;-91
2021/04/24 06:35:23;;;;;;;11.52;5.72;;;8.40;90.20;;;;;;4959670;28;20038;-92
2021/04/24 06:37:49;;;;;;;14.13;6.15;;;8.60;89.20;;;;;;4960874;28;20487;-88
2021/04/24 06:40:17;;;;;;;11.55;5.68;;;8.90;88.10;;;;;;4955778;28;20031;-90
2021/04/24 06:42:43;;;;;;;8.20;4.65;;;9.10;87.80;;;;;;4957087;28;20027;-91
2021/04/24 06:45:10;;;;;;;12.80;4.93;;;9.30;87.90;;;;;;4962895;28;20034;-90
2021/04/24 06:47:36;;;;;;;9.73;4.85;;;9.50;86.70;;;;;;4971923;28;20035;-90
2021/04/24 06:50:04;;;;;;;10.52;5.13;;;9.80;85.90;;;;;;4955436;28;20125;-90
2021/04/24 06:52:30;;;;;;;10.57;5.43;;;9.70;83.40;;;;;;4954497;28;20060;-91
2021/04/24 06:54:56;;;;;;;11.95;5.22;;;9.90;83.80;;;;;;4970534;28;20026;-91
2021/04/24 06:57:22;;;;;;;12.30;5.65;;;9.90;83.60;;;;;;4956910;28;20031;-91
2021/04/24 06:59:48;;;;;;;12.40;5.20;;;10.20;82.70;;;;;;4960855;28;20031;-92
2021/04/24 07:02:16;;;;;;;9.82;5.50;;;10.30;82.10;;;;;;4967318;28;20053;-90
2021/04/24 07:04:42;;;;;;;15.50;5.65;;;10.30;82.10;;;;;;4961259;28;20638;-93
2021/04/24 07:07:09;;;;;;;12.48;5.03;;;10.50;81.30;;;;;;4968572;28;20035;-91
2021/04/24 07:09:35;;;;;;;12.93;5.28;;;10.60;80.70;;;;;;4964635;28;20043;-92
2021/04/24 07:12:01;;;;;;;9.93;5.25;;;10.80;80.30;;;;;;4953469;28;20152;-91
2021/04/24 07:14:26;;;;;;;12.32;5.70;;;10.90;79.80;;;;;;4952924;28;20608;-94
2021/04/24 07:16:52;;;;;;;9.95;5.32;;;11.00;79.30;;;;;;4951896;28;20039;-92
2021/04/24 07:19:18;;;;;;;11.35;5.78;;;11.00;79.30;;;;;;4953410;28;20065;-90
2021/04/24 07:21:44;;;;;;;13.32;5.10;;;11.20;79.80;;;;;;4960694;28;20015;-89
2021/04/24 07:24:10;;;;;;;11.07;5.35;;;11.30;77.30;;;;;;4951824;28;20043;-89
2021/04/24 07:26:37;;;;;;;11.68;6.13;;;11.40;78.90;;;;;;4951602;28;20054;-90
2021/04/24 07:29:02;;;;;;;12.35;5.05;;;11.50;77.60;;;;;;4954996;28;20506;-88
2021/04/24 07:31:28;;;;;;;12.98;4.90;;;11.60;76.10;;;;;;4957869;28;20103;-90
2021/04/24 07:33:54;;;;;;;12.48;5.20;;;11.80;74.90;;;;;;4962085;28;20114;-91
2021/04/24 07:36:20;;;;;;;9.30;4.18;;;11.70;74.00;;;;;;4966668;28;20046;-87
2021/04/24 09:04:13;;;;;;;12.10;5.25;;;16.80;50.30;;;;;;4931755;26;20404;-91
2021/04/24 09:06:43;;;;;;;12.20;5.63;;;16.90;47.10;;;;;;5002463;28;20033;-89
2021/04/24 09:12:53;;;;;;;14.85;5.88;;;17.00;49.90;;;;;;5010438;28;20049;-94
2021/04/24 09:15:39;;;;;;;13.10;5.90;;;17.30;50.90;;;;;;5009539;28;20030;-92
2021/04/24 09:18:43;;;;;;;17.42;6.38;;;17.30;50.20;;;;;;5001217;28;20029;-91
2021/04/24 09:21:28;;;;;;;17.35;5.80;;;17.40;49.70;;;;;;4979168;28;20759;-93
2021/04/24 09:24:10;;;;;;;13.27;5.90;;;17.40;47.80;;;;;;4990696;28;20022;-93
2021/04/24 09:26:49;;;;;;;11.15;6.00;;;17.30;47.60;;;;;;5001197;28;20037;-91
2021/04/24 09:29:35;;;;;;;10.85;5.65;;;17.70;49.10;;;;;;5022166;28;20127;-93
2021/04/24 09:33:02;;;;;;;;;;;;;;;;;;;;;
2021/04/24 09:35:42;;;;;;;12.57;5.75;;;18.10;44.40;;;;;;4958099;28;20119;-93
2021/04/24 09:38:09;;;;;;;10.93;4.80;;;18.00;42.80;;;;;;4932170;29;20416;-93
2021/04/24 09:40:37;;;;;;;9.30;5.00;;;18.10;41.50;;;;;;4957735;28;20380;-93
2021/04/24 09:43:28;;;;;;;11.95;5.07;;;18.00;43.00;;;;;;4938576;28;20054;-93
2021/04/24 09:45:57;;;;;;;11.80;5.38;;;18.10;43.20;;;;;;5005984;28;20029;-95
2021/04/24 09:48:35;;;;;;;10.90;4.22;;;18.30;42.40;;;;;;5010187;28;20030;-95
2021/04/24 09:51:23;;;;;;;9.07;4.97;;;18.30;39.90;;;;;;5007357;28;20556;-93
2021/04/24 09:54:12;;;;;;;;;;;;;;;;;;;;;
2021/04/24 09:56:43;;;;;;;10.40;4.53;;;18.70;41.90;;;;;;5014278;28;20113;-93
2021/04/24 09:59:21;;;;;;;;;;;;;;;;;;;;;
2021/04/24 10:05:25;;;;;;;11.30;5.03;;;18.90;39.80;;;;;;4937871;28;20409;-93
2021/04/24 10:08:18;;;;;;;11.13;4.85;;;18.70;39.10;;;;;;5037556;28;20022;-93
2021/04/24 10:57:50;;;;;;;10.55;4.70;;;20.80;36.70;;;;;;5040033;28;20501;-94
2021/04/24 11:00:22;;;;;;;9.85;4.80;;;21.00;36.40;;;;;;5025231;28;20028;-95
2021/04/24 11:02:55;;;;;;;;;;;21.50;36.40;;;;;;5032407;28;20018;-95
2021/04/24 11:05:53;;;;;;;8.93;4.90;;;21.30;34.70;;;;;;5034919;28;19913;-95
2021/04/24 11:08:42;;;;;;;10.63;5.03;;;21.20;33.10;;;;;;4964028;28;20042;-96
2021/04/24 11:51:01;;;;;;;;;;;;;;;;;;;;;
2021/04/24 11:53:49;;;;;;;9.85;5.05;;;22.10;32.70;;;;;;4983054;28;20162;-90
2021/04/24 11:56:20;;;;;;;10.07;5.63;;;22.10;32.70;;;;;;4978655;28;20046;-93
2021/04/24 11:58:53;;;;;;;11.80;5.90;;;21.90;33.70;;;;;;4967989;28;20031;-95
2021/04/24 12:01:18;;;;;;;12.00;6.80;;;21.40;34.10;;;;;;4968903;28;20027;-94
2021/04/24 12:03:45;;;;;;;10.60;6.22;;;21.70;33.40;;;;;;4979952;28;20360;-94
2021/04/24 12:06:13;;;;;;;10.20;5.88;;;21.60;33.20;;;;;;4971162;28;21261;-95
2021/04/24 12:08:39;;;;;;;13.88;6.07;;;21.50;34.00;;;;;;4999305;28;20041;-94
2021/04/24 12:11:37;;;;;;;10.73;5.95;;;21.40;35.00;;;;;;4990704;28;20049;-96
2021/04/24 12:14:15;;;;;;;13.77;7.40;;;21.30;34.50;;;;;;4985594;28;20034;-95
2021/04/24 12:16:47;;;;;;;23.33;12.98;;;21.60;35.00;;;;;;4990371;28;20094;-94
2021/04/24 12:19:38;;;;;;;12.68;6.68;;;21.30;34.30;;;;;;4973645;28;20033;-94
2021/04/24 12:22:19;;;;;;;18.73;11.77;;;21.50;34.40;;;;;;4965866;28;20507;-94
2021/04/24 12:24:59;;;;;;;19.00;11.35;;;21.20;34.50;;;;;;4975595;28;20065;-93
2021/04/24 12:27:34;;;;;;;12.30;6.38;;;21.60;35.00;;;;;;4975816;28;20102;-90
2021/04/24 12:30:24;;;;;;;12.48;6.63;;;21.90;34.00;;;;;;4996051;28;20042;-93
2021/04/24 12:33:03;;;;;;;13.07;6.65;;;22.00;34.00;;;;;;4965813;28;20034;-94
2021/04/24 12:35:36;;;;;;;12.48;6.85;;;22.30;34.70;;;;;;4982647;28;20121;-93
2021/04/24 12:38:11;;;;;;;11.52;6.68;;;22.40;33.30;;;;;;4979524;28;20110;-93
2021/04/24 12:40:40;;;;;;;12.90;6.55;;;22.70;33.40;;;;;;4977466;28;20038;-92
2021/04/24 12:43:09;;;;;;;14.85;7.15;;;23.00;33.20;;;;;;4970640;28;20029;-91
2021/04/24 12:45:39;;;;;;;14.07;6.68;;;23.00;32.70;;;;;;4978948;28;20136;-93
2021/04/24 12:48:13;;;;;;;13.15;7.78;;;23.20;33.20;;;;;;4982088;28;20019;-93
2021/04/24 12:50:45;;;;;;;17.38;9.02;;;23.30;32.60;;;;;;4966162;28;20049;-93
2021/04/24 12:53:49;;;;;;;15.13;8.73;;;23.20;32.80;;;;;;4993677;28;20027;-93
2021/04/24 12:56:19;;;;;;;11.85;7.22;;;23.50;32.70;;;;;;4965349;28;20019;-92
2021/04/24 12:58:53;;;;;;;12.60;7.10;;;23.80;32.80;;;;;;4969573;28;20061;-92
2021/04/24 13:01:25;;;;;;;14.77;9.00;;;24.10;32.30;;;;;;4984247;28;20034;-92
2021/04/24 13:04:23;;;;;;;12.50;6.40;;;24.10;31.40;;;;;;4986982;28;20011;-94
2021/04/24 13:09:21;;;;;;;10.50;6.18;;;23.80;32.30;;;;;;4970157;28;20508;-84
2021/04/24 13:11:56;;;;;;;10.77;6.30;;;23.80;31.50;;;;;;4959171;29;20472;-84
2021/04/24 13:14:27;;;;;;;11.02;6.50;;;23.70;31.30;;;;;;4951565;28;20031;-83
2021/04/24 13:16:54;;;;;;;10.55;6.38;;;23.40;31.00;;;;;;4960954;28;20024;-83
2021/04/24 13:19:22;;;;;;;14.77;6.80;;;23.00;31.20;;;;;;4944122;29;20034;-83
2021/04/24 13:21:51;;;;;;;10.77;6.35;;;23.10;32.00;;;;;;4962937;29;20043;-83
2021/04/24 13:24:23;;;;;;;11.50;6.25;;;22.80;31.10;;;;;;4963631;29;20106;-83
2021/04/24 13:26:55;;;;;;;11.18;6.50;;;22.50;31.50;;;;;;4961551;28;20027;-83
2021/04/24 13:29:35;;;;;;;10.50;6.22;;;22.70;31.80;;;;;;4960278;29;20086;-83
2021/04/24 13:32:00;;;;;;;10.40;6.03;;;23.00;32.30;;;;;;4961534;29;20106;-84
2021/04/24 13:34:31;;;;;;;13.43;5.63;;;23.20;30.90;;;;;;4960381;28;20147;-83
2021/04/24 13:37:04;;;;;;;12.77;6.18;;;22.90;31.30;;;;;;4961398;28;20035;-83
2021/04/24 13:39:32;;;;;;;9.98;5.85;;;22.90;32.50;;;;;;4961350;29;20046;-83
2021/04/24 13:42:37;;;;;;;10.57;6.35;;;23.30;31.20;;;;;;4942446;29;20062;-83
2021/04/24 13:45:18;;;;;;;10.05;6.22;;;23.10;31.10;;;;;;4934282;28;20035;-83
2021/04/24 13:47:57;;;;;;;8.88;4.97;;;23.10;30.70;;;;;;4939177;29;20027;-83
2021/04/24 13:50:26;;;;;;;10.95;5.82;;;23.50;31.60;;;;;;4939407;29;20035;-83
2021/04/24 13:52:52;;;;;;;9.77;5.53;;;23.60;30.50;;;;;;4939049;29;20038;-83
2021/04/24 13:55:18;;;;;;;9.30;5.30;;;23.40;30.60;;;;;;4956202;28;20027;-84
2021/04/24 13:57:44;;;;;;;13.18;5.50;;;23.40;30.30;;;;;;4977780;28;20023;-83
2021/04/24 14:00:13;;;;;;;12.35;5.90;;;23.40;30.80;;;;;;4994998;28;20089;-84
2021/04/24 14:02:39;;;;;;;9.35;6.10;;;23.40;31.10;;;;;;4977425;28;20030;-84
2021/04/24 14:05:06;;;;;;;10.88;6.10;;;23.30;30.10;;;;;;4977192;28;20214;-84
2021/04/24 14:07:31;;;;;;;10.30;5.43;;;23.60;30.80;;;;;;4977155;28;20052;-84
2021/04/24 14:09:57;;;;;;;11.43;5.55;;;23.70;31.20;;;;;;4977351;28;20530;-83
2021/04/24 14:12:23;;;;;;;9.98;5.95;;;23.90;30.50;;;;;;4977151;28;20116;-83
2021/04/24 14:14:48;;;;;;;12.80;5.25;;;24.10;29.60;;;;;;4977354;28;20026;-83
2021/04/24 14:17:14;;;;;;;7.97;4.85;;;23.90;30.00;;;;;;4994553;28;20488;-83
2021/04/24 14:19:40;;;;;;;9.75;5.60;;;24.00;29.50;;;;;;4977371;28;20415;-84
2021/04/24 14:22:10;;;;;;;11.15;6.30;;;24.30;29.30;;;;;;4977092;28;20512;-83
2021/04/24 14:24:36;;;;;;;13.95;5.78;;;23.80;29.40;;;;;;4976976;28;20026;-83
2021/04/24 14:27:02;;;;;;;9.98;5.20;;;23.80;29.60;;;;;;4994539;28;20083;-83
2021/04/24 14:29:28;;;;;;;9.98;5.57;;;23.60;29.50;;;;;;4976497;28;20061;-83
2021/04/24 14:31:54;;;;;;;9.20;5.80;;;23.80;29.80;;;;;;4976178;28;20029;-83
2021/04/24 14:34:20;;;;;;;9.68;5.68;;;23.50;30.10;;;;;;4976826;28;20031;-83
2021/04/24 14:36:46;;;;;;;10.20;5.70;;;23.80;30.00;;;;;;4976913;28;20033;-83
2021/04/24 14:39:12;;;;;;;11.93;5.90;;;23.90;29.70;;;;;;4994347;28;20359;-83
2021/04/24 14:41:38;;;;;;;10.07;5.65;;;23.90;29.90;;;;;;4994480;28;20022;-83
2021/04/24 14:44:04;;;;;;;9.82;5.53;;;23.90;29.70;;;;;;4994240;28;20332;-83
2021/04/24 14:46:30;;;;;;;9.85;5.90;;;23.60;30.00;;;;;;4976840;28;20030;-84
2021/04/24 14:48:56;;;;;;;13.52;6.00;;;23.80;29.90;;;;;;4976888;28;20041;-83
2021/04/24 14:51:21;;;;;;;8.48;5.40;;;23.90;30.30;;;;;;4976722;28;20038;-86
2021/04/24 14:53:47;;;;;;;11.10;5.63;;;23.90;30.20;;;;;;4994720;28;20034;-84
2021/04/24 14:56:13;;;;;;;9.35;5.47;;;24.20;30.10;;;;;;4978534;28;20032;-84
2021/04/24 14:58:38;;;;;;;11.13;6.63;;;24.40;30.00;;;;;;4975801;28;20224;-84
2021/04/24 15:01:04;;;;;;;12.43;6.68;;;24.60;29.50;;;;;;4959327;29;20031;-84
2021/04/24 15:03:30;;;;;;;10.13;6.60;;;24.70;29.40;;;;;;4954179;29;20066;-83
2021/04/24 15:05:56;;;;;;;15.35;6.53;;;24.50;29.90;;;;;;4959960;28;20049;-83
2021/04/24 15:08:22;;;;;;;11.38;6.47;;;24.20;30.00;;;;;;4960466;28;20508;-84
2021/04/24 15:10:48;;;;;;;10.75;6.32;;;24.20;29.90;;;;;;4959372;28;20639;-84
2021/04/24 15:13:14;;;;;;;12.00;6.60;;;24.60;29.80;;;;;;4973021;28;20030;-84
2021/04/24 15:15:41;;;;;;;10.60;6.43;;;24.70;29.90;;;;;;4954289;28;20027;-84
2021/04/24 15:18:16;;;;;;;10.55;6.13;;;25.10;29.60;;;;;;4955168;29;20019;-84
2021/04/24 15:20:43;;;;;;;10.13;6.07;;;25.00;29.80;;;;;;4938251;29;20030;-84
2021/04/24 15:23:09;;;;;;;9.00;6.00;;;25.10;29.10;;;;;;4937572;29;20030;-83
2021/04/24 15:25:36;;;;;;;11.07;5.68;;;24.40;29.50;;;;;;4937507;28;20395;-84
2021/04/24 15:28:04;;;;;;;15.48;6.57;;;24.30;29.60;;;;;;4937701;29;20031;-84
2021/04/24 15:30:30;;;;;;;11.05;5.88;;;23.80;29.50;;;;;;4937346;29;20031;-84
2021/04/24 15:32:55;;;;;;;9.23;5.88;;;23.70;29.80;;;;;;4937723;29;20082;-84
2021/04/24 15:35:22;;;;;;;11.90;5.53;;;23.60;30.00;;;;;;4954672;29;20470;-84
2021/04/24 15:37:49;;;;;;;10.38;5.35;;;23.50;30.50;;;;;;4937292;29;20105;-84
2021/04/24 15:40:16;;;;;;;8.75;5.25;;;23.40;30.10;;;;;;4937424;29;20432;-84
2021/04/24 15:42:42;;;;;;;13.73;5.05;;;23.10;30.80;;;;;;4954369;28;20046;-83
2021/04/24 15:45:12;;;;;;;11.60;6.00;;;22.70;30.80;;;;;;4937527;29;20019;-84
2021/04/24 15:47:42;;;;;;;10.68;5.95;;;22.50;30.80;;;;;;4954735;28;20023;-83
2021/04/24 15:50:10;;;;;;;11.85;5.68;;;22.20;31.20;;;;;;4937677;29;20063;-83
2021/04/24 15:52:36;;;;;;;8.95;5.15;;;21.70;31.50;;;;;;4937315;29;20114;-83
2021/04/24 15:55:06;;;;;;;10.35;5.43;;;21.30;32.20;;;;;;4954664;29;20115;-83
2021/04/24 15:57:43;;;;;;;10.30;5.30;;;21.10;32.50;;;;;;4954741;28;20038;-83
2021/04/24 16:00:09;;;;;;;13.13;5.22;;;20.80;32.30;;;;;;4954413;28;20034;-83
2021/04/24 16:02:35;;;;;;;10.90;5.28;;;20.50;33.00;;;;;;4945139;29;20023;-83
2021/04/24 16:05:01;;;;;;;12.07;5.10;;;20.40;32.80;;;;;;4957603;29;20098;-83
2021/04/24 16:07:26;;;;;;;11.60;4.50;;;20.20;32.80;;;;;;4936305;29;20551;-83
2021/04/24 16:09:52;;;;;;;8.52;5.00;;;20.10;33.30;;;;;;4958282;28;20471;-83
2021/04/24 16:12:18;;;;;;;12.13;5.18;;;19.90;32.80;;;;;;4992542;28;20027;-85
2021/04/24 16:14:43;;;;;;;8.52;4.25;;;19.70;33.70;;;;;;4981911;28;20027;-85
2021/04/24 16:17:09;;;;;;;8.95;4.65;;;19.70;33.40;;;;;;4956934;28;20027;-85
2021/04/24 16:19:34;;;;;;;7.80;4.20;;;19.50;33.00;;;;;;4956866;28;20496;-84
2021/04/24 16:22:00;;;;;;;10.48;5.22;;;19.40;33.40;;;;;;4956948;28;20031;-85
2021/04/24 16:24:27;;;;;;;10.25;4.90;;;19.30;33.60;;;;;;4972827;28;20054;-85
2021/04/24 16:26:52;;;;;;;11.55;4.28;;;19.20;33.70;;;;;;4956573;28;20046;-84
2021/04/24 16:29:19;;;;;;;6.65;3.65;;;19.10;33.80;;;;;;4953874;29;20035;-85